sensor_id;sensor_type;location;lat;lon;timestamp;pressure;altitude;pressure_sealevel;temperature;humidity
23016;BME280;11674;52.428;13.584;2022-09-09T00:02:01;100769.94;;;17.26;84.84
23016;BME280;11674;52.428;13.584;2022-09-09T00:04:35;100771.41;;;17.24;84.81
23016;BME280;11674;52.428;13.584;2022-09-09T00:07:19;100779.31;;;17.22;85.10
23016;BME280;11674;52.428;13.584;2022-09-09T00:12:37;100780.00;;;17.19;85.24
23016;BME280;11674;52.428;13.584;2022-09-09T00:15:19;100777.06;;;17.15;85.26
23016;BME280;11674;52.428;13.584;2022-09-09T00:23:09;100768.31;;;17.08;85.39
23016;BME280;11674;52.428;13.584;2022-09-09T00:28:22;100760.44;;;17.02;85.02
23016;BME280;11674;52.428;13.584;2022-09-09T00:30:56;100763.06;;;16.98;85.37
23016;BME280;11674;52.428;13.584;2022-09-09T00:33:31;100758.13;;;16.95;85.38
23016;BME280;11674;52.428;13.584;2022-09-09T00:35:57;100755.66;;;16.94;85.35
23016;BME280;11674;52.428;13.584;2022-09-09T00:38:35;100749.56;;;16.92;85.30
23016;BME280;11674;52.428;13.584;2022-09-09T00:41:19;100749.56;;;16.92;85.18
23016;BME280;11674;52.428;13.584;2022-09-09T00:44:17;100749.06;;;16.90;85.59
23016;BME280;11674;52.428;13.584;2022-09-09T00:47:03;100746.63;;;16.88;85.33
23016;BME280;11674;52.428;13.584;2022-09-09T00:55:16;100760.44;;;16.85;85.55
23016;BME280;11674;52.428;13.584;2022-09-09T00:57:51;100760.44;;;16.85;85.67
23016;BME280;11674;52.428;13.584;2022-09-09T01:00:24;100762.44;;;16.84;85.51
23016;BME280;11674;52.428;13.584;2022-09-09T01:03:25;100760.78;;;16.83;85.75
23016;BME280;11674;52.428;13.584;2022-09-09T01:11:26;100763.94;;;16.82;85.19
23016;BME280;11674;52.428;13.584;2022-09-09T01:14:24;100766.25;;;16.80;85.38
23016;BME280;11674;52.428;13.584;2022-09-09T01:17:14;100763.09;;;16.81;85.26
23016;BME280;11674;52.428;13.584;2022-09-09T01:20:23;100762.94;;;16.78;85.35
23016;BME280;11674;52.428;13.584;2022-09-09T01:29:10;100777.28;;;16.68;84.58
23016;BME280;11674;52.428;13.584;2022-09-09T01:34:28;100769.41;;;16.61;84.46
23016;BME280;11674;52.428;13.584;2022-09-09T01:37:05;100764.13;;;16.60;84.81
23016;BME280;11674;52.428;13.584;2022-09-09T01:39:41;100772.84;;;16.58;84.50
23016;BME280;11674;52.428;13.584;2022-09-09T01:42:17;100771.53;;;16.56;84.44
23016;BME280;11674;52.428;13.584;2022-09-09T01:44:43;100763.78;;;16.53;84.64
23016;BME280;11674;52.428;13.584;2022-09-09T01:47:15;100764.94;;;16.52;84.49
23016;BME280;11674;52.428;13.584;2022-09-09T01:50:12;100761.66;;;16.50;84.47
23016;BME280;11674;52.428;13.584;2022-09-09T01:52:50;100761.50;;;16.46;84.31
23016;BME280;11674;52.428;13.584;2022-09-09T01:55:37;100759.00;;;16.45;84.64
23016;BME280;11674;52.428;13.584;2022-09-09T02:03:56;100765.38;;;16.37;84.71
23016;BME280;11674;52.428;13.584;2022-09-09T02:06:35;100764.91;;;16.35;84.73
23016;BME280;11674;52.428;13.584;2022-09-09T02:09:19;100768.03;;;16.33;84.49
23016;BME280;11674;52.428;13.584;2022-09-09T02:12:00;100776.25;;;16.30;84.66
23016;BME280;11674;52.428;13.584;2022-09-09T02:14:43;100774.94;;;16.27;84.44
23016;BME280;11674;52.428;13.584;2022-09-09T02:17:24;100772.47;;;16.26;84.83
23016;BME280;11674;52.428;13.584;2022-09-09T02:20:12;100773.63;;;16.25;84.58
23016;BME280;11674;52.428;13.584;2022-09-09T02:22:55;100781.22;;;16.24;84.55
23016;BME280;11674;52.428;13.584;2022-09-09T02:25:38;100780.69;;;16.22;84.30
23016;BME280;11674;52.428;13.584;2022-09-09T02:28:21;100783.00;;;16.20;84.40
23016;BME280;11674;52.428;13.584;2022-09-09T02:30:55;100773.28;;;16.18;84.28
23016;BME280;11674;52.428;13.584;2022-09-09T02:33:38;100779.22;;;16.16;84.27
23016;BME280;11674;52.428;13.584;2022-09-09T02:36:12;100779.22;;;16.16;84.46
23016;BME280;11674;52.428;13.584;2022-09-09T02:38:53;100777.09;;;16.13;84.41
23016;BME280;11674;52.428;13.584;2022-09-09T02:41:33;100770.16;;;16.11;84.36
23016;BME280;11674;52.428;13.584;2022-09-09T02:44:13;100764.03;;;16.09;84.53
23016;BME280;11674;52.428;13.584;2022-09-09T02:47:01;100774.75;;;16.07;84.75
23016;BME280;11674;52.428;13.584;2022-09-09T02:52:07;100773.91;;;16.06;84.63
23016;BME280;11674;52.428;13.584;2022-09-09T02:54:40;100773.91;;;16.06;84.49
23016;BME280;11674;52.428;13.584;2022-09-09T02:57:17;100772.28;;;16.05;84.40
23016;BME280;11674;52.428;13.584;2022-09-09T02:59:51;100772.28;;;16.05;84.64
23016;BME280;11674;52.428;13.584;2022-09-09T03:02:23;100779.03;;;16.04;84.27
23016;BME280;11674;52.428;13.584;2022-09-09T03:05:01;100776.56;;;16.03;84.42
23016;BME280;11674;52.428;13.584;2022-09-09T03:07:33;100779.66;;;16.01;84.44
23016;BME280;11674;52.428;13.584;2022-09-09T03:09:59;100786.44;;;16.00;84.53
23016;BME280;11674;52.428;13.584;2022-09-09T03:12:31;100781.97;;;15.99;84.40
23016;BME280;11674;52.428;13.584;2022-09-09T03:15:03;100778.34;;;15.99;84.59
23016;BME280;11674;52.428;13.584;2022-09-09T03:17:28;100783.13;;;15.98;84.84
23016;BME280;11674;52.428;13.584;2022-09-09T03:20:02;100780.81;;;16.00;85.14
23016;BME280;11674;52.428;13.584;2022-09-09T03:22:36;100786.91;;;16.02;85.14
23016;BME280;11674;52.428;13.584;2022-09-09T03:25:08;100790.53;;;16.03;84.96
23016;BME280;11674;52.428;13.584;2022-09-09T03:27:35;100798.09;;;16.02;85.01
23016;BME280;11674;52.428;13.584;2022-09-09T03:30:07;100792.03;;;16.00;84.88
23016;BME280;11674;52.428;13.584;2022-09-09T03:32:39;100794.81;;;16.00;85.11
23016;BME280;11674;52.428;13.584;2022-09-09T03:35:05;100786.25;;;15.97;85.19
23016;BME280;11674;52.428;13.584;2022-09-09T03:37:37;100789.91;;;15.97;84.83
23016;BME280;11674;52.428;13.584;2022-09-09T03:40:11;100788.56;;;15.95;84.84
23016;BME280;11674;52.428;13.584;2022-09-09T03:42:44;100783.78;;;15.95;84.97
23016;BME280;11674;52.428;13.584;2022-09-09T03:45:10;100786.91;;;15.94;85.02
23016;BME280;11674;52.428;13.584;2022-09-09T03:47:42;100798.91;;;15.94;85.14
23016;BME280;11674;52.428;13.584;2022-09-09T03:50:14;100791.69;;;15.93;84.74
23016;BME280;11674;52.428;13.584;2022-09-09T03:52:46;100802.03;;;15.93;84.93
23016;BME280;11674;52.428;13.584;2022-09-09T03:55:18;100800.88;;;15.94;85.02
23016;BME280;11674;52.428;13.584;2022-09-09T03:57:50;100798.44;;;15.92;84.84
23016;BME280;11674;52.428;13.584;2022-09-09T04:00:22;100801.56;;;15.91;84.67
23016;BME280;11674;52.428;13.584;2022-09-09T04:02:54;100799.91;;;15.90;84.97
23016;BME280;11674;52.428;13.584;2022-09-09T04:05:19;100795.44;;;15.89;84.84
23016;BME280;11674;52.428;13.584;2022-09-09T04:07:51;100791.00;;;15.88;84.68
23016;BME280;11674;52.428;13.584;2022-09-09T04:10:30;100786.56;;;15.87;84.85
23016;BME280;11674;52.428;13.584;2022-09-09T04:13:03;100780.97;;;15.87;84.67
23016;BME280;11674;52.428;13.584;2022-09-09T04:15:30;100797.75;;;15.87;84.76
23016;BME280;11674;52.428;13.584;2022-09-09T04:18:02;100791.31;;;15.86;84.91
23016;BME280;11674;52.428;13.584;2022-09-09T04:20:34;100791.97;;;15.83;84.68
23016;BME280;11674;52.428;13.584;2022-09-09T04:23:06;100800.38;;;15.83;84.47
23016;BME280;11674;52.428;13.584;2022-09-09T04:25:31;100803.81;;;15.80;84.41
23016;BME280;11674;52.428;13.584;2022-09-09T04:28:03;100804.16;;;15.79;84.39
23016;BME280;11674;52.428;13.584;2022-09-09T04:30:36;100802.84;;;15.76;84.55
23016;BME280;11674;52.428;13.584;2022-09-09T04:33:08;100809.22;;;15.77;84.70
23016;BME280;11674;52.428;13.584;2022-09-09T04:35:34;100811.53;;;15.75;84.58
23016;BME280;11674;52.428;13.584;2022-09-09T04:38:06;100809.91;;;15.74;84.40
23016;BME280;11674;52.428;13.584;2022-09-09T04:40:39;100809.06;;;15.73;84.38
23016;BME280;11674;52.428;13.584;2022-09-09T04:43:11;100815.50;;;15.74;84.35
23016;BME280;11674;52.428;13.584;2022-09-09T04:45:36;100821.09;;;15.74;84.42
23016;BME280;11674;52.428;13.584;2022-09-09T04:48:08;100825.53;;;15.75;84.56
23016;BME280;11674;52.428;13.584;2022-09-09T04:50:40;100819.94;;;15.75;84.61
23016;BME280;11674;52.428;13.584;2022-09-09T04:53:12;100823.88;;;15.74;84.74
23016;BME280;11674;52.428;13.584;2022-09-09T04:55:38;100818.78;;;15.76;84.99
23016;BME280;11674;52.428;13.584;2022-09-09T04:58:10;100828.50;;;15.78;84.84
23016;BME280;11674;52.428;13.584;2022-09-09T05:00:42;100833.78;;;15.80;84.96
23016;BME280;11674;52.428;13.584;2022-09-09T05:03:07;100826.72;;;15.82;85.21
23016;BME280;11674;52.428;13.584;2022-09-09T05:05:40;100824.41;;;15.84;84.99
23016;BME280;11674;52.428;13.584;2022-09-09T05:08:12;100821.78;;;15.88;84.99
23016;BME280;11674;52.428;13.584;2022-09-09T05:10:38;100832.34;;;15.91;84.86
23016;BME280;11674;52.428;13.584;2022-09-09T05:13:11;100835.63;;;15.93;84.88
23016;BME280;11674;52.428;13.584;2022-09-09T05:15:51;100831.66;;;15.94;85.08
23016;BME280;11674;52.428;13.584;2022-09-09T05:18:23;100840.25;;;15.97;85.32
23016;BME280;11674;52.428;13.584;2022-09-09T05:20:59;100829.56;;;15.99;85.23
23016;BME280;11674;52.428;13.584;2022-09-09T05:23:31;100826.63;;;16.04;85.30
23016;BME280;11674;52.428;13.584;2022-09-09T05:25:58;100832.38;;;16.08;85.39
23016;BME280;11674;52.428;13.584;2022-09-09T05:28:30;100841.47;;;16.13;85.38
23016;BME280;11674;52.428;13.584;2022-09-09T05:31:04;100833.72;;;16.19;85.21
23016;BME280;11674;52.428;13.584;2022-09-09T05:33:37;100835.88;;;16.22;84.83
23016;BME280;11674;52.428;13.584;2022-09-09T05:36:12;100830.44;;;16.25;85.04
23016;BME280;11674;52.428;13.584;2022-09-09T05:38:46;100836.69;;;16.31;85.31
23016;BME280;11674;52.428;13.584;2022-09-09T05:41:18;100832.09;;;16.35;85.14
23016;BME280;11674;52.428;13.584;2022-09-09T05:43:53;100834.78;;;16.40;85.12
23016;BME280;11674;52.428;13.584;2022-09-09T05:46:22;100829.03;;;16.45;85.14
23016;BME280;11674;52.428;13.584;2022-09-09T05:48:55;100835.09;;;16.47;85.12
23016;BME280;11674;52.428;13.584;2022-09-09T05:51:30;100834.47;;;16.50;85.02
23016;BME280;11674;52.428;13.584;2022-09-09T05:54:06;100830.66;;;16.54;85.60
23016;BME280;11674;52.428;13.584;2022-09-09T05:56:42;100844.53;;;16.59;85.24
23016;BME280;11674;52.428;13.584;2022-09-09T05:59:14;100848.81;;;16.65;85.26
23016;BME280;11674;52.428;13.584;2022-09-09T06:01:39;100849.47;;;16.71;85.42
23016;BME280;11674;52.428;13.584;2022-09-09T06:04:20;100846.84;;;16.74;84.95
23016;BME280;11674;52.428;13.584;2022-09-09T06:06:52;100857.22;;;16.74;85.14
23016;BME280;11674;52.428;13.584;2022-09-09T06:09:24;100853.28;;;16.75;84.98
23016;BME280;11674;52.428;13.584;2022-09-09T06:11:49;100857.22;;;16.74;84.90
23016;BME280;11674;52.428;13.584;2022-09-09T06:14:22;100862.50;;;16.75;84.92
23016;BME280;11674;52.428;13.584;2022-09-09T06:16:57;100859.38;;;16.77;85.32
23016;BME280;11674;52.428;13.584;2022-09-09T06:19:29;100859.22;;;16.82;85.35
23016;BME280;11674;52.428;13.584;2022-09-09T06:21:56;100856.25;;;16.87;85.28
23016;BME280;11674;52.428;13.584;2022-09-09T06:24:31;100854.91;;;16.93;85.15
23016;BME280;11674;52.428;13.584;2022-09-09T06:27:03;100855.06;;;16.96;85.57
23016;BME280;11674;52.428;13.584;2022-09-09T06:29:35;100846.97;;;17.03;85.63
23016;BME280;11674;52.428;13.584;2022-09-09T06:32:02;100857.69;;;17.10;85.41
23016;BME280;11674;52.428;13.584;2022-09-09T06:34:34;100841.69;;;17.19;85.59
23016;BME280;11674;52.428;13.584;2022-09-09T06:37:06;100857.50;;;17.32;85.91
23016;BME280;11674;52.428;13.584;2022-09-09T06:39:37;100859.66;;;17.43;86.05
23016;BME280;11674;52.428;13.584;2022-09-09T06:42:09;100861.09;;;17.58;86.12
23016;BME280;11674;52.428;13.584;2022-09-09T06:45:05;100852.13;;;17.73;85.79
23016;BME280;11674;52.428;13.584;2022-09-09T06:47:46;100861.16;;;17.87;85.59
23016;BME280;11674;52.428;13.584;2022-09-09T06:50:18;100854.34;;;17.96;85.49
23016;BME280;11674;52.428;13.584;2022-09-09T06:52:50;100858.75;;;18.06;85.49
23016;BME280;11674;52.428;13.584;2022-09-09T06:55:15;100866.31;;;18.14;85.65
23016;BME280;11674;52.428;13.584;2022-09-09T06:57:47;100872.09;;;18.17;85.16
23016;BME280;11674;52.428;13.584;2022-09-09T07:00:22;100862.63;;;18.22;85.22
23016;BME280;11674;52.428;13.584;2022-09-09T07:02:54;100866.41;;;18.26;85.36
23016;BME280;11674;52.428;13.584;2022-09-09T07:05:20;100866.72;;;18.33;85.43
23016;BME280;11674;52.428;13.584;2022-09-09T07:07:52;100865.03;;;18.40;85.46
23016;BME280;11674;52.428;13.584;2022-09-09T07:10:26;100861.56;;;18.43;85.04
23016;BME280;11674;52.428;13.584;2022-09-09T07:13:00;100858.56;;;18.48;85.15
23016;BME280;11674;52.428;13.584;2022-09-09T07:15:26;100874.38;;;18.53;84.84
23016;BME280;11674;52.428;13.584;2022-09-09T07:18:00;100868.44;;;18.54;84.94
23016;BME280;11674;52.428;13.584;2022-09-09T07:20:33;100871.22;;;18.54;84.87
23016;BME280;11674;52.428;13.584;2022-09-09T07:22:58;100862.81;;;18.54;85.01
23016;BME280;11674;52.428;13.584;2022-09-09T07:25:30;100874.19;;;18.58;84.92
23016;BME280;11674;52.428;13.584;2022-09-09T07:28:02;100866.22;;;18.60;85.05
23016;BME280;11674;52.428;13.584;2022-09-09T07:30:27;100872.81;;;18.64;84.94
23016;BME280;11674;52.428;13.584;2022-09-09T07:32:59;100864.19;;;18.69;85.03
23016;BME280;11674;52.428;13.584;2022-09-09T07:35:24;100864.31;;;18.72;85.01
23016;BME280;11674;52.428;13.584;2022-09-09T07:37:56;100871.38;;;18.78;84.75
23016;BME280;11674;52.428;13.584;2022-09-09T07:40:28;100874.47;;;18.85;85.04
23016;BME280;11674;52.428;13.584;2022-09-09T07:42:53;100863.97;;;18.94;84.82
23016;BME280;11674;52.428;13.584;2022-09-09T07:45:25;100860.28;;;19.02;85.14
23016;BME280;11674;52.428;13.584;2022-09-09T07:47:57;100863.81;;;19.11;84.83
23016;BME280;11674;52.428;13.584;2022-09-09T07:50:23;100877.47;;;19.21;84.34
23016;BME280;11674;52.428;13.584;2022-09-09T07:52:55;100877.59;;;19.25;84.53
23016;BME280;11674;52.428;13.584;2022-09-09T07:55:21;100878.09;;;19.27;84.28
23016;BME280;11674;52.428;13.584;2022-09-09T07:57:53;100886.69;;;19.30;84.45
23016;BME280;11674;52.428;13.584;2022-09-09T08:00:25;100883.66;;;19.35;84.52
23016;BME280;11674;52.428;13.584;2022-09-09T08:02:54;100883.09;;;19.42;84.50
23016;BME280;11674;52.428;13.584;2022-09-09T08:05:26;100881.22;;;19.46;84.35
23016;BME280;11674;52.428;13.584;2022-09-09T08:07:58;100881.69;;;19.48;84.12
23016;BME280;11674;52.428;13.584;2022-09-09T08:10:30;100886.16;;;19.49;84.43
23016;BME280;11674;52.428;13.584;2022-09-09T08:13:02;100881.81;;;19.51;84.41
23016;BME280;11674;52.428;13.584;2022-09-09T08:15:27;100893.34;;;19.58;84.70
23016;BME280;11674;52.428;13.584;2022-09-09T08:17:59;100890.78;;;19.65;84.62
23016;BME280;11674;52.428;13.584;2022-09-09T08:20:31;100900.28;;;19.73;84.44
23016;BME280;11674;52.428;13.584;2022-09-09T08:23:03;100895.38;;;19.82;84.52
23016;BME280;11674;52.428;13.584;2022-09-09T08:25:35;100892.47;;;19.90;84.72
23016;BME280;11674;52.428;13.584;2022-09-09T08:28:00;100885.19;;;20.01;84.95
23016;BME280;11674;52.428;13.584;2022-09-09T08:30:33;100886.06;;;20.14;84.88
23016;BME280;11674;52.428;13.584;2022-09-09T08:33:05;100892.09;;;20.24;85.09
23016;BME280;11674;52.428;13.584;2022-09-09T08:35:37;100881.97;;;20.35;84.65
23016;BME280;11674;52.428;13.584;2022-09-09T08:38:09;100884.19;;;20.42;84.69
23016;BME280;11674;52.428;13.584;2022-09-09T08:40:44;100893.25;;;20.47;84.43
23016;BME280;11674;52.428;13.584;2022-09-09T08:43:21;100889.59;;;20.47;84.32
23016;BME280;11674;52.428;13.584;2022-09-09T08:46:12;100891.72;;;20.50;84.41
23016;BME280;11674;52.428;13.584;2022-09-09T08:51:42;100896.75;;;20.68;84.55
23016;BME280;11674;52.428;13.584;2022-09-09T08:54:14;100894.13;;;20.75;84.37
23016;BME280;11674;52.428;13.584;2022-09-09T08:56:46;100896.13;;;20.87;84.64
23016;BME280;11674;52.428;13.584;2022-09-09T08:59:18;100895.56;;;20.93;84.29
23016;BME280;11674;52.428;13.584;2022-09-09T09:04:58;100907.63;;;21.06;84.50
23016;BME280;11674;52.428;13.584;2022-09-09T09:13:12;100891.16;;;21.08;84.32
23016;BME280;11674;52.428;13.584;2022-09-09T09:15:50;100899.84;;;21.15;84.45
23016;BME280;11674;52.428;13.584;2022-09-09T09:18:26;100893.09;;;21.19;84.75
23016;BME280;11674;52.428;13.584;2022-09-09T09:21:16;100895.81;;;21.28;84.90
23016;BME280;11674;52.428;13.584;2022-09-09T09:23:58;100892.94;;;21.40;84.72
23016;BME280;11674;52.428;13.584;2022-09-09T09:26:34;100889.94;;;21.48;84.58
23016;BME280;11674;52.428;13.584;2022-09-09T09:29:13;100890.13;;;21.55;84.69
23016;BME280;11674;52.428;13.584;2022-09-09T09:31:50;100886.69;;;21.62;84.86
23016;BME280;11674;52.428;13.584;2022-09-09T09:34:24;100888.41;;;21.66;84.57
23016;BME280;11674;52.428;13.584;2022-09-09T09:36:56;100893.84;;;21.71;84.53
23016;BME280;11674;52.428;13.584;2022-09-09T09:39:32;100892.38;;;21.77;84.71
23016;BME280;11674;52.428;13.584;2022-09-09T09:42:10;100882.94;;;21.85;84.29
23016;BME280;11674;52.428;13.584;2022-09-09T09:44:44;100884.66;;;21.90;83.90
23016;BME280;11674;52.428;13.584;2022-09-09T09:47:19;100882.41;;;21.95;83.78
23016;BME280;11674;52.428;13.584;2022-09-09T09:50:02;100883.28;;;21.99;83.96
23016;BME280;11674;52.428;13.584;2022-09-09T09:52:36;100886.69;;;22.05;84.32
23016;BME280;11674;52.428;13.584;2022-09-09T09:55:13;100890.88;;;22.11;84.45
23016;BME280;11674;52.428;13.584;2022-09-09T09:57:45;100890.88;;;22.11;83.99
23016;BME280;11674;52.428;13.584;2022-09-09T10:00:19;100891.03;;;22.18;84.37
23016;BME280;11674;52.428;13.584;2022-09-09T10:02:52;100889.41;;;22.32;85.16
23016;BME280;11674;52.428;13.584;2022-09-09T10:05:30;100890.88;;;22.42;85.01
23016;BME280;11674;52.428;13.584;2022-09-09T10:11:04;100883.13;;;22.54;85.23
23016;BME280;11674;52.428;13.584;2022-09-09T10:22:25;100890.59;;;23.16;85.70
23016;BME280;11674;52.428;13.584;2022-09-09T10:25:10;100884.44;;;23.29;85.47
23016;BME280;11674;52.428;13.584;2022-09-09T10:33:13;100890.50;;;23.47;85.09
23016;BME280;11674;52.428;13.584;2022-09-09T10:35:50;100896.66;;;23.52;85.71
23016;BME280;11674;52.428;13.584;2022-09-09T10:38:30;100890.31;;;23.59;85.46
23016;BME280;11674;52.428;13.584;2022-09-09T10:55:20;100896.63;;;23.90;84.40
23016;BME280;11674;52.428;13.584;2022-09-09T10:57:57;100886.53;;;23.93;83.97
23016;BME280;11674;52.428;13.584;2022-09-09T11:03:18;100888.28;;;23.97;83.58
23016;BME280;11674;52.428;13.584;2022-09-09T11:05:54;100888.81;;;24.06;83.45
23016;BME280;11674;52.428;13.584;2022-09-09T11:08:29;100886.56;;;24.15;83.44
23016;BME280;11674;52.428;13.584;2022-09-09T11:11:05;100880.25;;;24.25;83.32
23016;BME280;11674;52.428;13.584;2022-09-09T11:13:55;100884.41;;;24.31;83.13
23016;BME280;11674;52.428;13.584;2022-09-09T11:19:20;100876.53;;;24.21;82.21
23016;BME280;11674;52.428;13.584;2022-09-09T11:21:56;100877.69;;;24.17;81.46
23016;BME280;11674;52.428;13.584;2022-09-09T11:27:21;100877.78;;;24.24;83.08
23016;BME280;11674;52.428;13.584;2022-09-09T11:30:20;100876.25;;;24.30;83.42
23016;BME280;11674;52.428;13.584;2022-09-09T11:42:16;100881.66;;;24.87;83.76
23016;BME280;11674;52.428;13.584;2022-09-09T11:44:49;100878.97;;;24.97;83.31
23016;BME280;11674;52.428;13.584;2022-09-09T11:47:29;100870.22;;;25.09;82.99
23016;BME280;11674;52.428;13.584;2022-09-09T11:50:26;100865.25;;;25.29;83.44
23016;BME280;11674;52.428;13.584;2022-09-09T11:55:36;100867.03;;;25.80;82.25
23016;BME280;11674;52.428;13.584;2022-09-09T11:58:15;100860.72;;;25.94;81.74
23016;BME280;11674;52.428;13.584;2022-09-09T12:00:49;100857.59;;;26.09;81.51
23016;BME280;11674;52.428;13.584;2022-09-09T12:03:48;100853.69;;;26.28;80.92
23016;BME280;11674;52.428;13.584;2022-09-09T12:06:31;100848.09;;;26.38;80.85
23016;BME280;11674;52.428;13.584;2022-09-09T12:09:11;100844.44;;;26.41;80.91
23016;BME280;11674;52.428;13.584;2022-09-09T12:11:47;100850.13;;;26.38;80.63
23016;BME280;11674;52.428;13.584;2022-09-09T12:17:17;100842.78;;;26.37;80.16
23016;BME280;11674;52.428;13.584;2022-09-09T12:20:15;100827.44;;;26.48;79.61
23016;BME280;11674;52.428;13.584;2022-09-09T12:22:59;100825.66;;;26.84;78.14
23016;BME280;11674;52.428;13.584;2022-09-09T12:28:49;100821.16;;;28.63;75.29
23016;BME280;11674;52.428;13.584;2022-09-09T12:36:51;100812.59;;;29.70;74.58
23016;BME280;11674;52.428;13.584;2022-09-09T12:39:38;100810.53;;;30.28;72.02
23016;BME280;11674;52.428;13.584;2022-09-09T12:42:20;100802.47;;;30.97;70.62
23016;BME280;11674;52.428;13.584;2022-09-09T12:44:57;100799.28;;;31.55;70.68
23016;BME280;11674;52.428;13.584;2022-09-09T12:47:43;100799.84;;;31.43;73.18
23016;BME280;11674;52.428;13.584;2022-09-09T12:50:21;100799.63;;;31.31;70.79
23016;BME280;11674;52.428;13.584;2022-09-09T12:52:56;100792.09;;;31.40;69.20
23016;BME280;11674;52.428;13.584;2022-09-09T12:55:24;100793.59;;;31.48;69.60
23016;BME280;11674;52.428;13.584;2022-09-09T12:57:58;100792.16;;;31.63;68.95
23016;BME280;11674;52.428;13.584;2022-09-09T13:00:24;100796.91;;;31.17;69.77
23016;BME280;11674;52.428;13.584;2022-09-09T13:02:59;100786.47;;;30.63;70.00
23016;BME280;11674;52.428;13.584;2022-09-09T13:05:37;100797.31;;;29.94;66.90
23016;BME280;11674;52.428;13.584;2022-09-09T13:08:11;100802.94;;;29.39;69.81
23016;BME280;11674;52.428;13.584;2022-09-09T13:10:50;100804.75;;;28.95;69.83
23016;BME280;11674;52.428;13.584;2022-09-09T13:13:26;100808.09;;;28.69;72.56
23016;BME280;11674;52.428;13.584;2022-09-09T13:15:59;100808.97;;;28.48;72.40
23016;BME280;11674;52.428;13.584;2022-09-09T13:18:37;100797.97;;;28.12;71.92
23016;BME280;11674;52.428;13.584;2022-09-09T13:21:11;100801.22;;;27.86;71.92
23016;BME280;11674;52.428;13.584;2022-09-09T13:23:49;100794.59;;;27.50;70.91
23016;BME280;11674;52.428;13.584;2022-09-09T13:26:23;100796.16;;;27.20;71.50
23016;BME280;11674;52.428;13.584;2022-09-09T13:29:15;100790.75;;;27.04;72.00
23016;BME280;11674;52.428;13.584;2022-09-09T13:31:48;100785.03;;;26.94;72.44
23016;BME280;11674;52.428;13.584;2022-09-09T13:34:30;100786.16;;;26.79;72.60
23016;BME280;11674;52.428;13.584;2022-09-09T13:37:07;100783.28;;;26.72;72.56
23016;BME280;11674;52.428;13.584;2022-09-09T13:39:54;100781.16;;;26.58;71.84
23016;BME280;11674;52.428;13.584;2022-09-09T13:42:28;100793.19;;;26.38;71.96
23016;BME280;11674;52.428;13.584;2022-09-09T13:45:01;100789.84;;;26.25;72.10
23016;BME280;11674;52.428;13.584;2022-09-09T13:47:35;100782.00;;;26.08;72.06
23016;BME280;11674;52.428;13.584;2022-09-09T13:50:27;100780.28;;;25.97;72.59
23016;BME280;11674;52.428;13.584;2022-09-09T13:52:59;100781.78;;;25.87;73.04
23016;BME280;11674;52.428;13.584;2022-09-09T13:55:31;100787.81;;;25.79;73.02
23016;BME280;11674;52.428;13.584;2022-09-09T13:58:04;100784.53;;;25.73;73.39
23016;BME280;11674;52.428;13.584;2022-09-09T14:00:35;100793.00;;;25.70;73.37
23016;BME280;11674;52.428;13.584;2022-09-09T14:03:07;100801.47;;;25.63;73.63
23016;BME280;11674;52.428;13.584;2022-09-09T14:05:39;100797.28;;;25.50;72.94
23016;BME280;11674;52.428;13.584;2022-09-09T14:08:22;100795.94;;;25.40;73.45
23016;BME280;11674;52.428;13.584;2022-09-09T14:10:54;100794.28;;;25.36;73.89
23016;BME280;11674;52.428;13.584;2022-09-09T14:13:26;100796.25;;;25.32;74.06
23016;BME280;11674;52.428;13.584;2022-09-09T14:15:58;100796.22;;;25.28;74.39
23016;BME280;11674;52.428;13.584;2022-09-09T14:18:30;100794.97;;;25.26;74.44
23016;BME280;11674;52.428;13.584;2022-09-09T14:21:02;100791.31;;;25.25;74.71
23016;BME280;11674;52.428;13.584;2022-09-09T14:23:34;100789.63;;;25.24;74.76
23016;BME280;11674;52.428;13.584;2022-09-09T14:26:07;100789.28;;;25.26;74.90
23016;BME280;11674;52.428;13.584;2022-09-09T14:28:38;100791.75;;;25.27;74.88
23016;BME280;11674;52.428;13.584;2022-09-09T14:31:10;100784.53;;;25.37;75.27
23016;BME280;11674;52.428;13.584;2022-09-09T14:33:42;100784.25;;;25.49;75.24
23016;BME280;11674;52.428;13.584;2022-09-09T14:36:14;100782.41;;;25.63;75.29
23016;BME280;11674;52.428;13.584;2022-09-09T14:38:46;100780.88;;;25.76;75.07
23016;BME280;11674;52.428;13.584;2022-09-09T14:41:19;100778.09;;;25.83;74.52
23016;BME280;11674;52.428;13.584;2022-09-09T14:43:51;100771.22;;;25.84;74.36
23016;BME280;11674;52.428;13.584;2022-09-09T14:46:23;100777.25;;;25.76;74.27
23016;BME280;11674;52.428;13.584;2022-09-09T14:49:02;100775.53;;;25.68;74.11
23016;BME280;11674;52.428;13.584;2022-09-09T14:51:34;100777.88;;;25.59;73.74
23016;BME280;11674;52.428;13.584;2022-09-09T14:54:06;100772.47;;;25.47;73.44
23016;BME280;11674;52.428;13.584;2022-09-09T14:56:38;100780.94;;;25.40;73.11
23016;BME280;11674;52.428;13.584;2022-09-09T14:59:10;100777.97;;;25.29;73.12
23016;BME280;11674;52.428;13.584;2022-09-09T15:01:42;100769.84;;;25.28;73.74
23016;BME280;11674;52.428;13.584;2022-09-09T15:04:14;100771.44;;;25.25;73.89
23016;BME280;11674;52.428;13.584;2022-09-09T15:06:46;100775.41;;;25.21;73.74
23016;BME280;11674;52.428;13.584;2022-09-09T15:09:18;100781.41;;;25.16;74.08
23016;BME280;11674;52.428;13.584;2022-09-09T15:11:50;100797.13;;;25.06;73.82
23016;BME280;11674;52.428;13.584;2022-09-09T15:14:22;100799.41;;;24.94;74.06